Time;durP1;ratioP1;P1;durP2;ratioP2;P2;SDS_P1;SDS_P2;PMS_P1;PMS_P2;Temp;Humidity;BMP_temperature;BMP_pressure;BME280_temperature;BME280_humidity;BME280_pressure;Samples;Min_cycle;Max_cycle;Signal;HPM_P1;HPM_P2
2021/03/16 00:01:26;;;;;;;3.93;2.17;;;5.70;99.90;;;;;;5012875;28;20180;-69
2021/03/16 00:03:52;;;;;;;6.87;2.27;;;5.80;99.90;;;;;;5012921;28;20243;-69
2021/03/16 00:06:18;;;;;;;3.87;2.30;;;5.80;99.90;;;;;;5012824;28;20618;-68
2021/03/16 00:08:44;;;;;;;6.47;2.43;;;5.90;99.90;;;;;;5012555;28;20546;-68
2021/03/16 00:11:10;;;;;;;5.67;2.30;;;5.80;99.90;;;;;;5012768;28;20534;-67
2021/03/16 00:13:35;;;;;;;3.27;2.17;;;5.80;99.90;;;;;;4993994;28;20227;-68
2021/03/16 00:16:01;;;;;;;6.53;2.37;;;5.70;99.90;;;;;;5012629;28;20191;-69
2021/03/16 00:18:27;;;;;;;5.63;2.37;;;5.70;99.90;;;;;;5012643;28;20188;-68
2021/03/16 00:20:52;;;;;;;4.60;2.23;;;5.70;99.90;;;;;;5012299;28;20176;-68
2021/03/16 00:23:19;;;;;;;3.03;2.00;;;5.70;99.90;;;;;;5012644;28;20183;-68
2021/03/16 00:25:44;;;;;;;5.70;2.33;;;5.70;99.90;;;;;;5012527;28;20223;-67
2021/03/16 00:28:10;;;;;;;5.33;2.40;;;5.70;99.90;;;;;;5012248;28;20856;-68
2021/03/16 00:30:36;;;;;;;4.70;2.57;;;5.70;99.90;;;;;;5012295;28;20261;-69
2021/03/16 00:33:02;;;;;;;5.43;2.53;;;5.60;99.90;;;;;;5012256;28;20181;-69
2021/03/16 00:35:28;;;;;;;5.20;2.60;;;5.70;99.90;;;;;;5012545;28;20176;-68
2021/03/16 00:37:53;;;;;;;5.67;2.33;;;5.70;99.90;;;;;;5012197;28;20419;-68
2021/03/16 00:40:19;;;;;;;4.90;2.30;;;5.80;99.90;;;;;;5012238;28;20411;-67
2021/03/16 00:42:46;;;;;;;6.47;1.93;;;5.80;99.90;;;;;;5012257;28;20202;-68
2021/03/16 00:45:12;;;;;;;4.10;1.80;;;5.80;99.90;;;;;;5011449;28;20222;-69
2021/03/16 00:47:38;;;;;;;5.63;2.20;;;5.80;99.90;;;;;;4994107;28;20435;-66
2021/03/16 00:50:06;;;;;;;6.23;2.47;;;5.80;99.90;;;;;;5012028;28;20216;-66
2021/03/16 00:52:32;;;;;;;7.37;2.20;;;5.80;99.90;;;;;;5011911;28;20431;-68
2021/03/16 00:54:57;;;;;;;6.60;2.13;;;5.90;99.90;;;;;;5011809;28;20415;-68
2021/03/16 00:57:23;;;;;;;5.37;2.00;;;5.90;99.90;;;;;;5011948;28;20238;-68
2021/03/16 00:59:49;;;;;;;8.07;1.87;;;5.80;99.90;;;;;;5011922;28;20184;-68
2021/03/16 01:02:15;;;;;;;7.03;2.03;;;5.90;99.90;;;;;;5011888;28;20246;-68
2021/03/16 01:04:41;;;;;;;5.27;1.50;;;5.80;99.90;;;;;;5011688;28;20176;-68
2021/03/16 01:07:06;;;;;;;8.37;2.13;;;5.70;99.90;;;;;;5011644;28;20439;-69
2021/03/16 01:09:32;;;;;;;9.10;2.17;;;5.70;99.90;;;;;;4992292;28;20239;-68
2021/03/16 01:11:58;;;;;;;5.40;1.63;;;5.60;99.90;;;;;;5011846;28;20176;-69
2021/03/16 01:14:23;;;;;;;3.47;1.80;;;5.70;99.90;;;;;;5011841;28;20677;-67
2021/03/16 01:16:49;;;;;;;7.40;2.10;;;5.80;99.90;;;;;;5011744;28;20480;-68
2021/03/16 01:19:15;;;;;;;3.77;1.37;;;5.80;99.90;;;;;;5011562;28;20184;-68
2021/03/16 01:21:41;;;;;;;5.53;1.53;;;5.80;99.90;;;;;;5011378;28;20449;-68
2021/03/16 01:24:07;;;;;;;6.43;1.53;;;5.70;99.90;;;;;;5011602;28;20192;-68
2021/03/16 01:26:32;;;;;;;2.20;1.33;;;5.60;99.90;;;;;;5011662;28;20188;-69
2021/03/16 01:28:59;;;;;;;5.97;1.53;;;5.70;99.90;;;;;;5011367;28;20529;-67
2021/03/16 01:31:24;;;;;;;5.03;1.40;;;5.60;99.90;;;;;;5011430;28;20169;-68
2021/03/16 01:33:50;;;;;;;9.27;1.60;;;5.50;99.90;;;;;;5011412;28;20466;-69
2021/03/16 01:36:16;;;;;;;5.60;1.90;;;5.60;99.90;;;;;;5011509;28;20172;-69
2021/03/16 01:38:41;;;;;;;5.00;1.40;;;5.60;99.90;;;;;;5011369;28;20184;-66
2021/03/16 01:41:07;;;;;;;6.37;1.17;;;5.60;99.90;;;;;;5011291;28;20215;-69
2021/03/16 01:43:33;;;;;;;2.63;1.10;;;5.60;99.90;;;;;;5011322;28;20227;-68
2021/03/16 01:45:59;;;;;;;6.37;1.23;;;5.50;99.90;;;;;;5011133;28;20657;-68
2021/03/16 01:48:29;;;;;;;4.50;1.10;;;5.60;99.90;;;;;;5011220;28;20200;-69
2021/03/16 01:50:55;;;;;;;5.63;1.53;;;5.70;99.90;;;;;;5011144;28;20422;-67
2021/03/16 01:53:21;;;;;;;7.63;1.60;;;5.70;99.90;;;;;;5011210;28;20505;-68
2021/03/16 01:55:49;;;;;;;3.90;1.10;;;5.70;99.90;;;;;;5011094;28;20455;-69
2021/03/16 01:58:15;;;;;;;6.10;1.63;;;5.70;99.90;;;;;;5013923;28;20180;-68
2021/03/16 02:00:42;;;;;;;5.83;1.20;;;5.80;99.90;;;;;;5015271;28;20430;-68
2021/03/16 02:03:11;;;;;;;6.77;1.30;;;5.80;99.90;;;;;;5015217;28;20259;-68
2021/03/16 02:05:39;;;;;;;6.07;1.57;;;5.90;99.90;;;;;;5014777;28;20419;-68
2021/03/16 02:08:08;;;;;;;4.83;1.23;;;5.80;99.90;;;;;;5015030;28;20848;-66
2021/03/16 02:10:50;;;;;;;3.77;1.43;;;5.80;99.90;;;;;;5015074;28;20411;-68
2021/03/16 02:13:43;;;;;;;3.70;1.23;;;5.80;99.90;;;;;;5016019;28;20411;-67
2021/03/16 02:16:18;;;;;;;3.63;0.87;;;5.80;99.90;;;;;;5013678;28;20422;-68
2021/03/16 02:18:50;;;;;;;3.67;1.17;;;5.80;99.90;;;;;;5014681;28;20557;-68
2021/03/16 02:21:34;;;;;;;10.53;1.30;;;5.70;99.90;;;;;;5014858;28;20419;-69
2021/03/16 02:24:05;;;;;;;6.77;1.43;;;5.70;99.90;;;;;;5014674;28;20421;-69
2021/03/16 02:26:51;;;;;;;8.93;1.20;;;5.70;99.90;;;;;;5014513;28;20415;-68
2021/03/16 02:29:35;;;;;;;3.40;0.90;;;5.80;99.90;;;;;;5014437;28;20461;-68
2021/03/16 02:32:08;;;;;;;4.67;1.10;;;5.80;99.90;;;;;;5013454;28;20889;-68
2021/03/16 02:34:36;;;;;;;2.70;1.03;;;5.80;99.90;;;;;;5014370;28;20442;-68
2021/03/16 02:37:06;;;;;;;4.93;1.10;;;5.70;99.90;;;;;;5014452;28;20411;-69
2021/03/16 02:39:40;;;;;;;5.73;1.13;;;5.70;99.90;;;;;;5014449;28;20447;-69
2021/03/16 02:42:08;;;;;;;4.70;1.33;;;5.70;99.90;;;;;;5014105;28;20419;-69
2021/03/16 02:44:34;;;;;;;3.43;1.43;;;5.70;99.90;;;;;;5014360;28;20502;-69
2021/03/16 02:47:02;;;;;;;5.23;1.13;;;5.70;99.90;;;;;;5014149;28;20419;-68
2021/03/16 02:49:28;;;;;;;4.73;1.10;;;5.70;99.90;;;;;;5013704;28;20454;-68
2021/03/16 02:51:55;;;;;;;6.10;1.13;;;5.70;99.90;;;;;;5014125;28;20502;-68
2021/03/16 02:54:22;;;;;;;5.90;1.20;;;5.80;99.90;;;;;;5013801;28;20427;-68
2021/03/16 02:56:50;;;;;;;3.33;0.83;;;5.90;99.90;;;;;;5013710;28;20434;-67
2021/03/16 02:59:17;;;;;;;5.67;1.10;;;5.90;99.90;;;;;;5013691;28;20471;-69
2021/03/16 03:01:44;;;;;;;6.20;1.37;;;5.80;99.90;;;;;;5013956;28;20435;-68
2021/03/16 03:04:11;;;;;;;4.27;0.90;;;5.80;99.90;;;;;;5014006;28;20427;-69
2021/03/16 03:06:40;;;;;;;7.37;1.27;;;5.80;99.90;;;;;;5013630;28;20411;-69
2021/03/16 03:09:09;;;;;;;8.40;1.30;;;5.80;99.90;;;;;;5013120;28;20525;-68
2021/03/16 03:11:34;;;;;;;4.40;1.10;;;5.80;99.90;;;;;;5013961;28;20434;-68
2021/03/16 03:14:02;;;;;;;4.03;0.77;;;5.90;99.90;;;;;;5013855;28;20463;-67
2021/03/16 03:16:29;;;;;;;2.87;1.00;;;5.90;99.90;;;;;;5021143;28;20626;-68
2021/03/16 03:18:55;;;;;;;4.27;1.00;;;5.90;99.90;;;;;;5020819;28;20498;-68
2021/03/16 03:21:45;;;;;;;4.47;1.03;;;5.90;99.90;;;;;;5027956;28;20774;-69
2021/03/16 03:24:15;;;;;;;6.43;1.30;;;5.90;99.90;;;;;;5011469;28;20779;-68
2021/03/16 03:26:55;;;;;;;5.00;1.27;;;6.00;99.90;;;;;;5025692;28;20461;-68
2021/03/16 03:29:25;;;;;;;3.10;0.90;;;6.00;99.90;;;;;;5026564;28;20462;-68
2021/03/16 03:31:52;;;;;;;3.63;0.97;;;5.90;99.90;;;;;;5020259;28;20416;-68
2021/03/16 03:34:19;;;;;;;3.43;0.93;;;5.90;99.90;;;;;;5032675;28;20402;-69
2021/03/16 03:36:48;;;;;;;6.40;1.20;;;6.00;99.90;;;;;;5030734;28;20435;-69
2021/03/16 03:39:14;;;;;;;3.23;1.03;;;6.00;99.90;;;;;;5013151;28;20419;-69
2021/03/16 03:41:40;;;;;;;4.47;1.07;;;6.00;99.90;;;;;;5032070;28;20430;-68
2021/03/16 03:44:09;;;;;;;6.03;1.17;;;6.00;99.90;;;;;;5017305;28;20422;-69
2021/03/16 03:46:39;;;;;;;4.70;1.23;;;5.90;99.90;;;;;;5032526;28;20507;-69
2021/03/16 03:49:05;;;;;;;4.00;1.27;;;5.90;99.90;;;;;;5031714;28;20485;-68
2021/03/16 03:51:33;;;;;;;4.83;1.13;;;5.90;99.90;;;;;;5025996;28;20411;-69
2021/03/16 03:54:00;;;;;;;6.63;1.03;;;5.90;99.90;;;;;;5013137;28;20411;-68
2021/03/16 03:56:33;;;;;;;4.27;1.03;;;5.90;99.90;;;;;;5013005;28;20441;-69
2021/03/16 03:59:00;;;;;;;5.37;1.30;;;5.80;99.90;;;;;;5015594;28;20905;-69
2021/03/16 04:01:29;;;;;;;4.43;1.40;;;5.80;99.90;;;;;;5030244;28;20765;-68
2021/03/16 04:03:55;;;;;;;3.23;1.00;;;5.70;99.90;;;;;;5032655;28;20804;-67
2021/03/16 04:06:25;;;;;;;3.53;1.03;;;5.70;99.90;;;;;;5017356;28;20427;-68
2021/03/16 04:08:52;;;;;;;6.17;1.30;;;5.80;99.90;;;;;;5024607;28;20515;-68
2021/03/16 04:11:21;;;;;;;8.57;1.57;;;5.80;99.90;;;;;;5028093;28;20582;-69
2021/03/16 04:13:48;;;;;;;5.73;1.10;;;5.80;99.90;;;;;;5029199;28;20489;-67
2021/03/16 04:16:16;;;;;;;4.30;1.00;;;5.70;99.90;;;;;;5011138;28;20415;-68
2021/03/16 04:18:43;;;;;;;6.97;1.63;;;5.70;99.90;;;;;;5012564;28;20415;-69
2021/03/16 04:21:09;;;;;;;4.87;1.23;;;5.60;99.90;;;;;;5011470;28;20791;-68
2021/03/16 04:23:35;;;;;;;4.87;1.27;;;5.60;99.90;;;;;;5012316;28;20820;-68
2021/03/16 04:26:01;;;;;;;11.63;1.57;;;5.60;99.90;;;;;;5012333;28;20901;-68
2021/03/16 04:28:27;;;;;;;4.33;1.20;;;5.60;99.90;;;;;;5012240;28;20482;-67
2021/03/16 04:30:53;;;;;;;6.00;1.37;;;5.60;99.90;;;;;;5012292;28;20227;-68
2021/03/16 04:33:19;;;;;;;6.87;1.67;;;5.50;99.90;;;;;;5012361;28;20207;-69
2021/03/16 04:35:46;;;;;;;4.00;1.20;;;5.60;99.90;;;;;;5012361;28;20485;-68
2021/03/16 04:38:11;;;;;;;10.27;1.83;;;5.50;99.90;;;;;;5012167;28;20781;-67
2021/03/16 04:40:37;;;;;;;8.17;1.80;;;5.60;99.90;;;;;;5012109;28;20419;-69
2021/03/16 04:43:04;;;;;;;4.37;1.60;;;5.50;99.90;;;;;;5012068;28;20230;-66
2021/03/16 04:45:30;;;;;;;9.37;1.30;;;5.60;99.90;;;;;;5012468;28;20230;-68
2021/03/16 04:47:55;;;;;;;7.50;1.27;;;5.60;99.90;;;;;;5011919;28;20954;-68
2021/03/16 04:50:21;;;;;;;4.07;1.33;;;5.70;99.90;;;;;;5010769;28;20218;-68
2021/03/16 04:52:47;;;;;;;6.73;1.30;;;5.70;99.90;;;;;;5011833;28;20168;-68
2021/03/16 04:55:13;;;;;;;5.63;1.20;;;5.70;99.90;;;;;;5011765;28;20177;-68
2021/03/16 04:57:39;;;;;;;6.33;1.40;;;5.60;99.90;;;;;;4994485;28;20177;-68
2021/03/16 05:00:05;;;;;;;6.23;1.40;;;5.60;99.90;;;;;;5011979;28;20446;-70
2021/03/16 05:02:31;;;;;;;6.27;2.17;;;5.60;99.90;;;;;;5011772;28;20180;-70
2021/03/16 05:04:56;;;;;;;5.63;1.40;;;5.60;99.90;;;;;;5011667;28;20430;-68
2021/03/16 05:07:22;;;;;;;6.57;1.53;;;5.60;99.90;;;;;;5011846;28;20195;-68
2021/03/16 05:09:47;;;;;;;5.43;1.50;;;5.60;99.90;;;;;;5010144;28;20208;-68
2021/03/16 05:12:13;;;;;;;5.27;1.33;;;5.60;99.90;;;;;;5011754;28;20239;-68
2021/03/16 05:14:39;;;;;;;5.90;1.43;;;5.70;99.90;;;;;;5012849;28;20211;-68
2021/03/16 05:17:04;;;;;;;6.80;1.63;;;5.70;99.90;;;;;;5011637;28;20172;-68
2021/03/16 05:19:30;;;;;;;9.30;1.70;;;5.70;99.90;;;;;;5011842;28;20240;-69
2021/03/16 05:21:55;;;;;;;8.33;1.67;;;5.70;99.90;;;;;;5011485;28;20267;-68
2021/03/16 05:24:21;;;;;;;7.57;1.67;;;5.70;99.90;;;;;;5011299;28;20184;-68
2021/03/16 05:26:47;;;;;;;6.33;1.67;;;5.70;99.90;;;;;;5011277;28;20749;-66
2021/03/16 05:29:12;;;;;;;6.27;1.40;;;5.70;99.90;;;;;;5011150;28;20288;-68
2021/03/16 05:31:38;;;;;;;4.83;1.63;;;5.60;99.90;;;;;;5011130;28;20550;-68
2021/03/16 05:34:03;;;;;;;9.03;1.27;;;5.60;99.90;;;;;;5011572;28;20330;-69
2021/03/16 05:36:29;;;;;;;4.93;1.20;;;5.70;99.90;;;;;;5011245;28;20614;-69
2021/03/16 05:38:55;;;;;;;5.07;1.60;;;5.70;99.90;;;;;;5011470;28;20191;-69
2021/03/16 05:41:22;;;;;;;6.87;1.20;;;5.70;99.90;;;;;;5011204;28;20180;-69
2021/03/16 05:43:48;;;;;;;7.07;1.30;;;5.60;99.90;;;;;;5011227;28;20200;-68
2021/03/16 05:46:15;;;;;;;4.20;1.03;;;5.60;99.90;;;;;;5011370;28;20446;-69
2021/03/16 05:48:41;;;;;;;8.07;2.20;;;5.60;99.90;;;;;;5011032;28;20199;-68
2021/03/16 05:51:08;;;;;;;10.57;1.97;;;5.60;99.90;;;;;;5011217;28;20866;-68
2021/03/16 05:53:34;;;;;;;9.10;1.97;;;5.60;99.90;;;;;;5011295;28;20490;-69
2021/03/16 05:56:00;;;;;;;8.73;1.63;;;5.60;99.90;;;;;;5011023;28;20499;-69
2021/03/16 05:58:26;;;;;;;3.97;1.60;;;5.60;99.90;;;;;;5011045;28;20179;-70
2021/03/16 06:00:51;;;;;;;13.30;1.87;;;5.70;99.90;;;;;;4993301;28;20428;-68
2021/03/16 06:03:17;;;;;;;7.40;1.67;;;5.60;99.90;;;;;;4993277;28;20223;-67
2021/03/16 06:05:43;;;;;;;4.03;1.70;;;5.70;99.90;;;;;;5011151;28;20508;-68
2021/03/16 06:08:09;;;;;;;8.93;2.20;;;5.70;99.90;;;;;;5010969;28;20411;-67
2021/03/16 06:10:34;;;;;;;10.43;2.50;;;5.70;99.90;;;;;;5010933;28;20550;-68
2021/03/16 06:13:15;;;;;;;9.03;2.07;;;5.70;99.90;;;;;;5010597;28;20607;-68
2021/03/16 06:15:42;;;;;;;5.80;1.47;;;5.60;99.90;;;;;;5010975;28;20591;-68
2021/03/16 06:18:11;;;;;;;8.97;2.20;;;5.60;99.90;;;;;;5010528;28;20453;-69
2021/03/16 06:20:37;;;;;;;8.70;1.80;;;5.60;99.90;;;;;;5010762;28;20885;-70
2021/03/16 06:23:13;;;;;;;8.57;1.90;;;5.60;99.90;;;;;;5010659;28;20684;-68
2021/03/16 06:25:44;;;;;;;6.50;1.83;;;5.60;99.90;;;;;;5010542;28;20461;-69
2021/03/16 06:28:15;;;;;;;5.93;1.97;;;5.70;99.90;;;;;;5010285;28;20415;-68
2021/03/16 06:30:41;;;;;;;7.87;1.63;;;5.70;99.90;;;;;;5010771;28;20429;-70
2021/03/16 06:33:21;;;;;;;7.63;1.60;;;5.70;99.90;;;;;;5010938;28;20407;-69
2021/03/16 06:36:05;;;;;;;10.53;1.90;;;5.70;99.90;;;;;;4992770;28;20925;-69
2021/03/16 06:38:32;;;;;;;4.60;1.97;;;5.70;99.90;;;;;;5010670;28;20423;-70
2021/03/16 06:41:19;;;;;;;8.37;2.00;;;5.70;99.90;;;;;;5010728;28;20423;-68
2021/03/16 06:43:58;;;;;;;10.60;2.43;;;5.80;99.90;;;;;;5009406;28;20889;-69
2021/03/16 06:46:39;;;;;;;9.57;1.60;;;5.80;99.90;;;;;;5013654;28;20959;-68
2021/03/16 06:49:15;;;;;;;5.60;2.20;;;5.80;99.90;;;;;;5013859;28;20804;-69
2021/03/16 06:51:41;;;;;;;8.00;2.10;;;5.80;99.90;;;;;;5012798;28;20901;-69
2021/03/16 06:54:10;;;;;;;7.60;1.87;;;5.80;99.90;;;;;;4996479;28;20416;-69
2021/03/16 06:56:36;;;;;;;6.77;1.83;;;5.90;99.90;;;;;;4996692;28;20495;-70
2021/03/16 06:59:04;;;;;;;7.60;1.93;;;5.90;99.90;;;;;;5014449;28;20502;-69
2021/03/16 07:01:32;;;;;;;7.70;2.03;;;5.90;99.90;;;;;;5014119;28;20172;-68
2021/03/16 07:04:18;;;;;;;7.17;2.20;;;5.90;99.90;;;;;;4996353;28;20777;-69
2021/03/16 07:06:44;;;;;;;8.87;2.37;;;5.90;99.90;;;;;;5013291;28;20423;-68
2021/03/16 07:09:11;;;;;;;7.63;2.23;;;5.90;99.90;;;;;;5014116;28;20463;-69
2021/03/16 07:11:40;;;;;;;6.90;2.17;;;5.90;99.90;;;;;;5013960;28;20506;-69
2021/03/16 07:14:06;;;;;;;5.73;1.77;;;5.90;99.90;;;;;;4996695;28;20459;-69
2021/03/16 07:16:34;;;;;;;8.57;1.80;;;6.00;99.90;;;;;;5019205;28;20423;-68
2021/03/16 07:19:04;;;;;;;7.73;2.53;;;6.00;99.90;;;;;;5033141;28;20415;-69
2021/03/16 07:21:43;;;;;;;6.37;2.13;;;6.00;99.90;;;;;;5032928;28;20904;-69
2021/03/16 07:24:11;;;;;;;7.30;2.00;;;6.00;99.90;;;;;;5033424;28;20429;-69
2021/03/16 07:26:37;;;;;;;9.17;2.10;;;6.10;99.90;;;;;;5033229;28;20414;-69
2021/03/16 07:29:05;;;;;;;4.30;1.70;;;6.00;99.90;;;;;;5032897;28;20473;-70
2021/03/16 07:31:38;;;;;;;6.07;2.40;;;6.10;99.90;;;;;;5033047;28;20418;-69
2021/03/16 07:34:05;;;;;;;7.47;2.07;;;6.10;99.90;;;;;;5032815;28;20423;-68
2021/03/16 07:36:32;;;;;;;9.37;2.30;;;6.10;99.90;;;;;;5033218;28;20421;-68
2021/03/16 07:38:59;;;;;;;4.37;1.63;;;6.10;99.90;;;;;;5032826;28;20423;-69
2021/03/16 07:41:25;;;;;;;10.30;2.27;;;6.10;99.90;;;;;;5033051;28;20772;-69
2021/03/16 07:44:04;;;;;;;6.97;1.70;;;6.20;99.90;;;;;;5032763;28;20517;-68
2021/03/16 07:46:58;;;;;;;4.93;1.73;;;6.20;99.90;;;;;;5032569;28;20775;-70
2021/03/16 07:49:41;;;;;;;7.97;2.27;;;6.20;99.90;;;;;;5012928;28;20494;-69
2021/03/16 07:52:18;;;;;;;7.33;1.80;;;6.30;99.90;;;;;;5019360;28;20423;-71
2021/03/16 07:54:50;;;;;;;9.40;2.23;;;6.30;99.90;;;;;;5013807;28;20412;-69
2021/03/16 07:57:34;;;;;;;10.30;2.03;;;6.30;99.90;;;;;;5021834;28;20564;-69
2021/03/16 08:00:04;;;;;;;5.43;1.63;;;6.40;99.90;;;;;;5032279;28;20528;-69
2021/03/16 08:02:31;;;;;;;13.00;2.23;;;6.50;99.90;;;;;;5032141;28;20413;-69
2021/03/16 08:04:57;;;;;;;5.70;2.20;;;6.50;99.90;;;;;;5032350;28;20468;-68
2021/03/16 08:07:24;;;;;;;7.23;1.80;;;6.50;99.90;;;;;;5032112;28;20928;-69
2021/03/16 08:09:58;;;;;;;11.33;2.00;;;6.60;99.90;;;;;;5032282;28;20199;-69
2021/03/16 08:12:23;;;;;;;6.03;1.63;;;6.70;99.90;;;;;;5032299;28;20955;-69
2021/03/16 08:14:49;;;;;;;11.83;1.70;;;6.60;99.90;;;;;;5024457;28;20455;-68
2021/03/16 08:17:34;;;;;;;6.70;1.87;;;6.70;99.90;;;;;;5012542;28;20168;-69
2021/03/16 08:20:02;;;;;;;7.73;1.83;;;6.80;99.90;;;;;;5012753;28;20460;-69
2021/03/16 08:22:28;;;;;;;4.70;1.93;;;6.90;99.90;;;;;;5012429;28;20909;-69
2021/03/16 08:25:06;;;;;;;7.83;1.83;;;6.90;99.90;;;;;;5012500;28;20419;-69
2021/03/16 08:27:34;;;;;;;8.17;1.63;;;7.00;99.90;;;;;;5011415;28;20415;-69
2021/03/16 08:30:04;;;;;;;9.73;2.43;;;7.00;99.90;;;;;;5011887;28;20815;-68
2021/03/16 08:32:30;;;;;;;9.17;1.40;;;7.00;99.90;;;;;;5012324;28;20780;-68
2021/03/16 08:34:56;;;;;;;9.73;1.80;;;7.00;99.90;;;;;;5012284;28;20415;-69
2021/03/16 08:37:33;;;;;;;10.17;1.83;;;7.00;99.90;;;;;;5011981;28;20200;-70
2021/03/16 08:39:59;;;;;;;6.47;1.47;;;7.00;99.90;;;;;;5012053;28;20510;-69
2021/03/16 08:42:27;;;;;;;6.40;2.03;;;6.90;99.90;;;;;;5012064;28;20872;-69
2021/03/16 08:44:53;;;;;;;5.93;1.30;;;7.00;99.90;;;;;;5012314;28;20529;-68
2021/03/16 08:47:21;;;;;;;11.03;1.77;;;7.00;99.90;;;;;;5012164;28;20434;-69
2021/03/16 08:49:49;;;;;;;5.80;1.57;;;6.90;99.90;;;;;;5011281;28;20459;-68
2021/03/16 08:52:20;;;;;;;8.87;2.10;;;6.90;99.90;;;;;;5011565;28;20931;-68
2021/03/16 08:54:46;;;;;;;7.73;2.03;;;6.90;99.90;;;;;;5012020;28;20435;-69
2021/03/16 08:57:20;;;;;;;7.30;1.60;;;6.90;99.90;;;;;;5011936;28;20934;-69
2021/03/16 08:59:56;;;;;;;9.17;2.07;;;6.90;99.90;;;;;;5012029;28;20763;-69
2021/03/16 09:02:28;;;;;;;4.47;1.80;;;6.90;99.90;;;;;;5011909;28;20548;-68
2021/03/16 09:04:55;;;;;;;6.90;1.80;;;6.90;99.90;;;;;;5011911;28;20888;-69
2021/03/16 09:07:22;;;;;;;10.30;2.10;;;6.90;99.90;;;;;;5011148;28;20948;-67
2021/03/16 09:09:48;;;;;;;7.03;1.80;;;6.90;99.90;;;;;;5011631;28;21051;-68
2021/03/16 09:12:26;;;;;;;9.60;2.23;;;7.00;99.90;;;;;;4994258;28;20510;-69
2021/03/16 09:14:51;;;;;;;7.13;1.83;;;7.10;99.90;;;;;;5014655;28;20450;-68
2021/03/16 09:17:17;;;;;;;6.37;1.93;;;7.10;99.90;;;;;;5027228;28;20461;-69
2021/03/16 09:19:44;;;;;;;5.87;1.87;;;7.20;99.90;;;;;;5018052;28;20188;-69
2021/03/16 09:22:11;;;;;;;8.07;1.80;;;7.30;99.90;;;;;;5018329;28;20187;-69
2021/03/16 09:24:43;;;;;;;6.90;2.27;;;7.40;99.90;;;;;;5016391;28;20578;-68
2021/03/16 09:27:08;;;;;;;5.37;1.90;;;7.50;99.90;;;;;;5030387;28;20501;-68
2021/03/16 09:29:36;;;;;;;6.40;1.57;;;7.60;99.90;;;;;;5028439;28;20537;-69
2021/03/16 09:32:11;;;;;;;8.53;2.10;;;7.70;99.40;;;;;;5028356;28;20179;-69
2021/03/16 09:34:39;;;;;;;8.33;2.30;;;7.70;99.40;;;;;;5026099;28;20786;-69
2021/03/16 09:37:09;;;;;;;7.50;1.57;;;7.80;98.30;;;;;;5024912;28;20447;-70
2021/03/16 09:39:36;;;;;;;8.73;1.87;;;7.90;96.50;;;;;;5012578;28;20927;-67
2021/03/16 09:42:04;;;;;;;7.67;1.60;;;7.90;96.40;;;;;;5016787;28;20423;-68
2021/03/16 09:44:37;;;;;;;7.77;1.80;;;8.00;97.20;;;;;;5022526;28;20969;-69
2021/03/16 09:47:04;;;;;;;4.07;1.37;;;7.90;93.80;;;;;;5000468;28;20434;-69
2021/03/16 09:49:31;;;;;;;4.47;1.27;;;7.90;94.20;;;;;;5013695;28;20473;-69
2021/03/16 09:52:02;;;;;;;5.20;1.80;;;8.00;94.60;;;;;;5026510;28;20414;-67
2021/03/16 09:54:33;;;;;;;6.17;1.70;;;8.00;93.60;;;;;;5027774;28;20468;-69
2021/03/16 09:56:59;;;;;;;6.80;1.60;;;8.10;93.40;;;;;;5020770;28;20492;-68
2021/03/16 09:59:24;;;;;;;3.60;1.30;;;8.20;93.60;;;;;;5017648;28;20912;-69
2021/03/16 10:01:50;;;;;;;5.77;1.43;;;8.30;90.70;;;;;;5030713;28;20203;-68
2021/03/16 10:04:16;;;;;;;7.57;1.50;;;8.40;88.90;;;;;;5027332;28;20186;-69
2021/03/16 10:06:44;;;;;;;8.70;1.43;;;8.40;89.70;;;;;;5012623;28;20180;-69
2021/03/16 10:09:17;;;;;;;6.00;1.50;;;8.50;87.00;;;;;;5016431;28;20196;-69
2021/03/16 10:11:43;;;;;;;9.30;1.70;;;8.50;85.60;;;;;;5010955;28;20427;-69
2021/03/16 10:14:09;;;;;;;10.37;1.70;;;8.60;85.40;;;;;;5011773;28;20420;-68
2021/03/16 10:16:35;;;;;;;5.43;1.47;;;8.60;84.30;;;;;;5030751;28;20568;-69
2021/03/16 10:19:01;;;;;;;9.67;1.70;;;8.60;83.00;;;;;;5029341;28;20423;-67
2021/03/16 10:21:34;;;;;;;4.97;1.67;;;8.80;80.50;;;;;;5016105;28;20770;-68
2021/03/16 10:24:04;;;;;;;4.50;1.40;;;8.80;80.20;;;;;;4997091;28;20531;-68
2021/03/16 10:26:29;;;;;;;5.93;1.53;;;9.00;85.80;;;;;;4999775;28;20939;-68
2021/03/16 10:28:55;;;;;;;5.43;1.53;;;9.00;81.70;;;;;;5028972;28;20454;-69
2021/03/16 10:31:24;;;;;;;5.23;1.60;;;8.90;78.60;;;;;;5019183;28;20627;-68
2021/03/16 10:33:52;;;;;;;8.67;1.60;;;9.00;82.70;;;;;;5001339;28;20180;-70
2021/03/16 10:36:20;;;;;;;4.03;1.53;;;9.00;82.40;;;;;;5029003;28;20785;-69
2021/03/16 10:38:48;;;;;;;8.73;2.10;;;9.00;81.70;;;;;;5034230;28;20430;-69
2021/03/16 10:41:15;;;;;;;8.63;1.80;;;8.80;85.30;;;;;;5026869;28;20437;-69
2021/03/16 10:43:41;;;;;;;6.53;1.60;;;8.70;88.10;;;;;;5019922;28;20439;-69
2021/03/16 10:46:07;;;;;;;4.70;1.70;;;8.70;89.20;;;;;;5030665;28;20806;-68
2021/03/16 10:48:32;;;;;;;6.53;1.60;;;8.60;89.00;;;;;;5033150;28;20199;-69
2021/03/16 10:50:58;;;;;;;3.47;1.50;;;8.50;89.70;;;;;;5026930;28;20176;-68
2021/03/16 10:53:23;;;;;;;3.90;1.33;;;8.50;88.70;;;;;;5026752;28;20199;-68
2021/03/16 10:55:49;;;;;;;8.00;1.77;;;8.50;90.00;;;;;;5015574;28;20528;-69
2021/03/16 10:58:14;;;;;;;7.10;1.47;;;8.50;85.00;;;;;;5032364;28;20207;-69
2021/03/16 11:00:40;;;;;;;11.23;1.80;;;8.50;83.50;;;;;;5018519;28;20208;-68
2021/03/16 11:03:06;;;;;;;5.23;1.37;;;8.60;87.30;;;;;;5014218;28;20173;-69
2021/03/16 11:05:32;;;;;;;4.43;1.40;;;8.60;81.90;;;;;;5020993;28;20259;-69
2021/03/16 11:07:58;;;;;;;5.07;1.27;;;8.60;82.50;;;;;;5022927;28;20180;-69
2021/03/16 11:10:24;;;;;;;4.67;1.53;;;8.70;83.00;;;;;;5031128;28;20245;-69
2021/03/16 11:12:50;;;;;;;8.27;1.40;;;8.90;84.50;;;;;;5027878;28;20420;-69
2021/03/16 11:15:15;;;;;;;8.30;1.70;;;9.10;83.00;;;;;;5028588;28;20600;-69
2021/03/16 11:17:41;;;;;;;6.37;1.30;;;9.10;79.40;;;;;;5023489;28;20184;-69
2021/03/16 11:20:07;;;;;;;5.50;1.30;;;9.30;77.50;;;;;;5032441;28;20184;-69
2021/03/16 11:22:33;;;;;;;7.20;1.67;;;9.30;78.80;;;;;;5033491;28;20281;-68
2021/03/16 11:25:03;;;;;;;3.00;1.30;;;9.30;79.20;;;;;;5033675;28;20477;-69
2021/03/16 11:27:28;;;;;;;3.83;1.20;;;9.30;79.50;;;;;;5020882;28;20373;-69
2021/03/16 11:29:54;;;;;;;1.93;1.20;;;9.50;79.50;;;;;;5005822;28;20546;-69
2021/03/16 11:32:20;;;;;;;4.27;1.33;;;9.50;75.10;;;;;;5021835;28;20565;-68
2021/03/16 11:34:45;;;;;;;7.67;1.10;;;9.60;75.40;;;;;;5030249;28;20175;-68
2021/03/16 11:37:11;;;;;;;6.63;1.33;;;9.70;73.00;;;;;;5033037;28;20414;-69
2021/03/16 11:39:37;;;;;;;3.90;1.00;;;9.80;70.40;;;;;;5027380;28;20507;-69
2021/03/16 11:42:03;;;;;;;4.20;1.20;;;9.80;66.20;;;;;;5014699;28;20184;-69
2021/03/16 11:44:28;;;;;;;4.47;0.97;;;9.80;68.10;;;;;;5021612;28;20176;-70
2021/03/16 11:47:00;;;;;;;5.30;1.00;;;9.70;67.50;;;;;;5021669;28;20187;-68
2021/03/16 11:49:26;;;;;;;5.60;0.90;;;9.60;68.50;;;;;;5023999;28;20202;-69
2021/03/16 11:51:51;;;;;;;5.40;1.20;;;9.60;70.00;;;;;;5022804;28;20179;-68
2021/03/16 11:54:17;;;;;;;6.40;1.20;;;9.50;68.40;;;;;;5013146;28;20180;-68
2021/03/16 11:56:43;;;;;;;4.73;1.43;;;9.40;68.50;;;;;;5021999;28;20182;-70
2021/03/16 11:59:08;;;;;;;5.37;1.40;;;9.40;70.40;;;;;;5022682;28;20655;-69
2021/03/16 12:01:34;;;;;;;6.77;1.20;;;9.50;70.10;;;;;;5032016;28;20195;-70
2021/03/16 12:03:59;;;;;;;4.00;1.50;;;9.60;73.80;;;;;;5028205;28;20245;-70
2021/03/16 12:06:25;;;;;;;5.00;1.43;;;9.80;72.00;;;;;;5026413;28;20192;-68
2021/03/16 12:08:50;;;;;;;3.67;1.40;;;9.80;73.80;;;;;;5019400;28;20196;-68
2021/03/16 12:11:16;;;;;;;4.53;1.67;;;9.90;73.80;;;;;;5012573;28;20180;-68
2021/03/16 12:13:42;;;;;;;6.37;1.60;;;9.90;72.60;;;;;;5017413;28;20203;-70
2021/03/16 12:16:07;;;;;;;3.43;1.13;;;9.90;71.40;;;;;;5017684;28;20220;-69
2021/03/16 12:18:33;;;;;;;6.47;1.57;;;9.80;70.70;;;;;;5018177;28;20180;-69
2021/03/16 12:20:59;;;;;;;4.03;1.30;;;9.70;73.10;;;;;;5025642;28;20622;-70
2021/03/16 12:23:25;;;;;;;6.23;1.30;;;9.80;73.20;;;;;;5013178;28;20177;-70
2021/03/16 12:25:53;;;;;;;4.73;1.50;;;9.90;73.10;;;;;;5018015;28;20579;-69
2021/03/16 12:28:19;;;;;;;4.53;1.23;;;10.00;74.60;;;;;;5018563;28;20468;-69
2021/03/16 12:30:45;;;;;;;7.33;1.50;;;9.90;76.90;;;;;;5031265;28;20414;-68
2021/03/16 12:33:11;;;;;;;5.30;1.63;;;9.90;74.90;;;;;;5026664;28;20172;-67
2021/03/16 12:35:36;;;;;;;5.87;1.20;;;9.80;77.30;;;;;;5020448;28;20204;-69
2021/03/16 12:38:03;;;;;;;3.93;1.00;;;9.80;79.70;;;;;;5027116;28;20180;-69
2021/03/16 12:40:30;;;;;;;7.47;1.87;;;9.90;77.60;;;;;;5012546;28;20263;-69
2021/03/16 12:42:55;;;;;;;4.53;1.10;;;10.00;78.60;;;;;;5015007;28;20901;-68
2021/03/16 12:45:21;;;;;;;5.00;1.30;;;10.00;77.30;;;;;;5018870;28;20319;-70
2021/03/16 12:47:47;;;;;;;2.60;0.97;;;10.10;78.00;;;;;;5012033;28;20523;-68
2021/03/16 12:50:13;;;;;;;4.30;1.30;;;10.20;74.90;;;;;;5018417;28;20203;-68
2021/03/16 12:52:39;;;;;;;3.87;1.40;;;10.30;75.80;;;;;;5030644;28;20253;-70
2021/03/16 12:55:05;;;;;;;8.53;1.73;;;10.40;73.90;;;;;;5023626;28;20466;-69
2021/03/16 12:57:30;;;;;;;5.97;1.83;;;10.40;74.90;;;;;;5031960;28;20258;-69
2021/03/16 12:59:56;;;;;;;4.40;1.23;;;10.50;76.60;;;;;;5028940;28;20681;-68